AUL522 UBBB-ULLI
Flight info
| Callsign | AUL522 |
|---|---|
| Flight time | N/A |
| Altitude | 34000 |
| Route | EKRAM N39 LASKA N50 MOLED/K0817F360 N50 NUDKO T561 ODATI T875 GENPA GENPA1B |
| Aircraft | B738/M-SDE2E3FGHIRWXY/LB1 |
Departure
| Time | 2026-05-05 14:49 |
|---|---|
| Airport | Heydar Aliyev International Airport (UBBB) |
Arrival
| Time | N/A |
|---|---|
| Airport | Pulkovo Airport (ULLI) |
| Time | Latitude | Longitude | Altitude | Speed | Heading |
|---|---|---|---|---|---|
| 2026-05-05 14:36 | 40.46406 | 50.04980 | -5 ft | 0 kts | 176° |
| 2026-05-05 14:37 | 40.46408 | 50.04980 | -5 ft | 1 kts | 176° |
| 2026-05-05 14:37 | 40.46423 | 50.04979 | -6 ft | 2 kts | 175° |
| 2026-05-05 14:38 | 40.46437 | 50.04977 | -6 ft | 2 kts | 176° |
| 2026-05-05 14:38 | 40.46452 | 50.04975 | -6 ft | 2 kts | 176° |
| 2026-05-05 14:38 | 40.46465 | 50.04973 | -6 ft | 2 kts | 140° |
| 2026-05-05 14:38 | 40.46472 | 50.04956 | -7 ft | 1 kts | 90° |
| 2026-05-05 14:39 | 40.46470 | 50.04938 | -7 ft | 2 kts | 86° |
| 2026-05-05 14:39 | 40.46470 | 50.04919 | -7 ft | 2 kts | 88° |
| 2026-05-05 14:39 | 40.46469 | 50.04899 | -6 ft | 2 kts | 87° |
| 2026-05-05 14:39 | 40.46469 | 50.04879 | -6 ft | 2 kts | 88° |
| 2026-05-05 14:40 | 40.46468 | 50.04866 | -6 ft | 1 kts | 88° |
| 2026-05-05 14:40 | 40.46468 | 50.04864 | -7 ft | 0 kts | 89° |
| 2026-05-05 14:42 | 40.46468 | 50.04867 | -7 ft | 1 kts | 89° |
| 2026-05-05 14:42 | 40.46469 | 50.04908 | -7 ft | 5 kts | 89° |
| 2026-05-05 14:42 | 40.46485 | 50.04924 | -7 ft | 4 kts | 351° |
| 2026-05-05 14:43 | 40.46522 | 50.04909 | -7 ft | 5 kts | 342° |
| 2026-05-05 14:43 | 40.46555 | 50.04903 | -7 ft | 5 kts | 10° |
| 2026-05-05 14:43 | 40.46610 | 50.04936 | -7 ft | 11 kts | 28° |
| 2026-05-05 14:43 | 40.46704 | 50.04998 | -8 ft | 18 kts | 25° |
| 2026-05-05 14:44 | 40.46840 | 50.05043 | -10 ft | 19 kts | 357° |
| 2026-05-05 14:44 | 40.46918 | 50.05076 | -10 ft | 11 kts | 60° |
| 2026-05-05 14:44 | 40.46928 | 50.05169 | -10 ft | 10 kts | 87° |
| 2026-05-05 14:44 | 40.46932 | 50.05274 | -10 ft | 13 kts | 88° |
| 2026-05-05 14:45 | 40.46934 | 50.05397 | -9 ft | 13 kts | 89° |
| 2026-05-05 14:45 | 40.46938 | 50.05531 | -9 ft | 15 kts | 89° |
| 2026-05-05 14:45 | 40.46941 | 50.05673 | -7 ft | 15 kts | 89° |
| 2026-05-05 14:45 | 40.46944 | 50.05818 | -7 ft | 17 kts | 87° |
| 2026-05-05 14:46 | 40.46948 | 50.05973 | -4 ft | 14 kts | 87° |
| 2026-05-05 14:46 | 40.46918 | 50.06078 | -4 ft | 12 kts | 154° |
| 2026-05-05 14:46 | 40.46819 | 50.06088 | -4 ft | 18 kts | 180° |
| 2026-05-05 14:46 | 40.46664 | 50.06091 | -4 ft | 26 kts | 179° |
| 2026-05-05 14:47 | 40.46450 | 50.06094 | -5 ft | 32 kts | 180° |
| 2026-05-05 14:47 | 40.46228 | 50.06097 | -9 ft | 31 kts | 180° |
| 2026-05-05 14:47 | 40.46016 | 50.06099 | -10 ft | 30 kts | 179° |
| 2026-05-05 14:47 | 40.45868 | 50.06115 | -10 ft | 14 kts | 144° |
| 2026-05-05 14:48 | 40.45847 | 50.06227 | -10 ft | 12 kts | 92° |
| 2026-05-05 14:48 | 40.45876 | 50.06315 | -10 ft | 10 kts | 17° |
| 2026-05-05 14:48 | 40.45977 | 50.06316 | -10 ft | 30 kts | 1° |
| 2026-05-05 14:48 | 40.46384 | 50.06316 | -6 ft | 90 kts | 359° |
| 2026-05-05 14:49 | 40.47219 | 50.06301 | 2 ft | 148 kts | 359° |
| 2026-05-05 14:49 | 40.48291 | 50.06276 | 600 ft | 149 kts | 1° |
| 2026-05-05 14:49 | 40.49301 | 50.06267 | 1177 ft | 154 kts | 355° |
| 2026-05-05 14:49 | 40.50373 | 50.05959 | 1733 ft | 159 kts | 347° |
| 2026-05-05 14:50 | 40.51486 | 50.05670 | 2056 ft | 172 kts | 351° |
| 2026-05-05 14:50 | 40.52692 | 50.05390 | 2398 ft | 187 kts | 349° |
| 2026-05-05 14:50 | 40.54068 | 50.05031 | 2572 ft | 212 kts | 349° |
| 2026-05-05 14:50 | 40.55558 | 50.04680 | 3028 ft | 225 kts | 351° |
| 2026-05-05 14:51 | 40.57125 | 50.04330 | 3513 ft | 237 kts | 350° |
| 2026-05-05 14:51 | 40.58804 | 50.03944 | 3921 ft | 253 kts | 349° |
| 2026-05-05 14:51 | 40.60569 | 50.03534 | 4436 ft | 264 kts | 348° |
| 2026-05-05 14:51 | 40.62414 | 50.03219 | 5010 ft | 272 kts | 354° |
| 2026-05-05 14:52 | 40.64317 | 50.03120 | 5604 ft | 280 kts | 357° |
| 2026-05-05 14:52 | 40.66279 | 50.03066 | 6191 ft | 286 kts | 356° |
| 2026-05-05 14:52 | 40.68292 | 50.03001 | 6826 ft | 291 kts | 356° |
| 2026-05-05 14:52 | 40.70333 | 50.02925 | 7455 ft | 296 kts | 355° |
| 2026-05-05 14:53 | 40.72409 | 50.02845 | 8125 ft | 300 kts | 355° |
| 2026-05-05 14:53 | 40.74523 | 50.02762 | 8699 ft | 306 kts | 354° |
| 2026-05-05 14:53 | 40.76638 | 50.02680 | 9323 ft | 309 kts | 354° |
| 2026-05-05 14:53 | 40.78798 | 50.02596 | 9909 ft | 314 kts | 354° |
| 2026-05-05 14:54 | 40.81000 | 50.02509 | 10363 ft | 323 kts | 353° |
| 2026-05-05 14:54 | 40.83312 | 50.02413 | 10627 ft | 339 kts | 353° |
| 2026-05-05 14:54 | 40.85712 | 50.02314 | 10901 ft | 354 kts | 353° |
| 2026-05-05 14:54 | 40.88240 | 50.02211 | 11187 ft | 369 kts | 353° |
| 2026-05-05 14:55 | 40.90828 | 50.02109 | 11447 ft | 383 kts | 353° |
| 2026-05-05 14:55 | 40.93507 | 50.02007 | 12050 ft | 386 kts | 353° |
| 2026-05-05 14:55 | 40.96199 | 50.01907 | 12718 ft | 388 kts | 352° |
| 2026-05-05 14:55 | 40.98856 | 50.01805 | 13293 ft | 392 kts | 352° |
| 2026-05-05 14:56 | 41.01578 | 50.01698 | 13939 ft | 394 kts | 352° |
| 2026-05-05 14:56 | 41.04351 | 50.01589 | 14541 ft | 398 kts | 352° |
| 2026-05-05 14:56 | 41.07129 | 50.01478 | 15102 ft | 403 kts | 352° |
| 2026-05-05 14:56 | 41.09914 | 50.01363 | 15679 ft | 407 kts | 351° |
| 2026-05-05 14:57 | 41.12717 | 50.01121 | 16271 ft | 407 kts | 347° |
| 2026-05-05 14:57 | 41.15504 | 50.00549 | 16788 ft | 406 kts | 341° |
| 2026-05-05 14:57 | 41.18234 | 49.99681 | 17323 ft | 407 kts | 338° |
| 2026-05-05 14:57 | 41.20974 | 49.98700 | 17876 ft | 409 kts | 336° |
| 2026-05-05 14:58 | 41.23707 | 49.97695 | 18386 ft | 413 kts | 336° |
| 2026-05-05 14:58 | 41.26488 | 49.96674 | 18881 ft | 418 kts | 336° |
| 2026-05-05 14:58 | 41.29333 | 49.95633 | 19333 ft | 423 kts | 337° |
| 2026-05-05 14:58 | 41.32149 | 49.94609 | 19863 ft | 425 kts | 337° |
| 2026-05-05 14:59 | 41.34995 | 49.93570 | 20182 ft | 433 kts | 337° |
| 2026-05-05 14:59 | 41.37906 | 49.92513 | 20755 ft | 434 kts | 337° |
| 2026-05-05 14:59 | 41.40831 | 49.91449 | 21213 ft | 438 kts | 337° |
| 2026-05-05 14:59 | 41.43758 | 49.90382 | 21618 ft | 443 kts | 336° |
| 2026-05-05 15:00 | 41.46767 | 49.89283 | 22034 ft | 447 kts | 337° |
| 2026-05-05 15:00 | 41.48766 | 49.88555 | 22316 ft | 449 kts | 336° |
| 2026-05-05 15:00 | 41.52777 | 49.87088 | 22771 ft | 456 kts | 336° |
| 2026-05-05 15:00 | 41.55819 | 49.85979 | 23248 ft | 458 kts | 336° |
| 2026-05-05 15:01 | 41.58910 | 49.84846 | 23553 ft | 464 kts | 336° |
| 2026-05-05 15:01 | 41.62042 | 49.83699 | 24001 ft | 466 kts | 336° |
| 2026-05-05 15:01 | 41.65158 | 49.82558 | 24457 ft | 468 kts | 337° |
| 2026-05-05 15:01 | 41.68295 | 49.81406 | 24767 ft | 473 kts | 337° |
| 2026-05-05 15:02 | 41.71489 | 49.80232 | 25211 ft | 475 kts | 337° |
| 2026-05-05 15:02 | 41.74688 | 49.79057 | 25646 ft | 477 kts | 337° |
| 2026-05-05 15:02 | 41.77849 | 49.77895 | 26003 ft | 481 kts | 337° |
| 2026-05-05 15:02 | 41.81092 | 49.76700 | 26398 ft | 483 kts | 337° |
| 2026-05-05 15:03 | 41.84328 | 49.75506 | 26761 ft | 486 kts | 337° |
| 2026-05-05 15:03 | 41.87600 | 49.74297 | 27091 ft | 489 kts | 337° |
| 2026-05-05 15:03 | 41.90836 | 49.73101 | 27491 ft | 491 kts | 337° |
| 2026-05-05 15:03 | 41.94130 | 49.71882 | 27840 ft | 494 kts | 337° |
| 2026-05-05 15:04 | 41.97437 | 49.70658 | 28294 ft | 493 kts | 337° |
| 2026-05-05 15:04 | 42.00740 | 49.69439 | 28942 ft | 488 kts | 337° |
| 2026-05-05 15:04 | 42.03990 | 49.68237 | 29393 ft | 488 kts | 338° |
| 2026-05-05 15:04 | 42.07271 | 49.67017 | 29759 ft | 489 kts | 337° |
| 2026-05-05 15:05 | 42.13796 | 49.64588 | 30651 ft | 485 kts | 337° |
| 2026-05-05 15:05 | 42.17014 | 49.63390 | 30959 ft | 486 kts | 337° |
| 2026-05-05 15:05 | 42.20272 | 49.62175 | 31440 ft | 483 kts | 337° |
| 2026-05-05 15:06 | 42.23471 | 49.60981 | 31808 ft | 482 kts | 337° |
| 2026-05-05 15:06 | 42.26719 | 49.59766 | 32151 ft | 481 kts | 337° |
| 2026-05-05 15:06 | 42.29913 | 49.58569 | 32476 ft | 481 kts | 337° |
| 2026-05-05 15:06 | 42.33141 | 49.57357 | 32844 ft | 479 kts | 337° |
| 2026-05-05 15:07 | 42.36267 | 49.56097 | 33111 ft | 477 kts | 334° |
| 2026-05-05 15:07 | 42.39370 | 49.54472 | 33466 ft | 469 kts | 328° |
| 2026-05-05 15:07 | 42.42275 | 49.52633 | 33881 ft | 462 kts | 326° |
| 2026-05-05 15:08 | 42.47948 | 49.48734 | 33927 ft | 464 kts | 324° |
| 2026-05-05 15:08 | 42.53685 | 49.44714 | 33931 ft | 460 kts | 324° |
| 2026-05-05 15:09 | 42.59333 | 49.40738 | 33929 ft | 461 kts | 324° |
| 2026-05-05 15:09 | 42.65040 | 49.36715 | 33933 ft | 459 kts | 324° |
| 2026-05-05 15:10 | 42.70656 | 49.32749 | 33921 ft | 458 kts | 324° |
| 2026-05-05 15:10 | 42.76324 | 49.28732 | 33930 ft | 460 kts | 324° |
| 2026-05-05 15:11 | 42.81958 | 49.24735 | 33925 ft | 460 kts | 324° |
| 2026-05-05 15:11 | 42.87600 | 49.20726 | 33917 ft | 459 kts | 324° |
| 2026-05-05 15:12 | 42.93234 | 49.16714 | 33916 ft | 458 kts | 323° |
| 2026-05-05 15:12 | 42.98835 | 49.12717 | 33921 ft | 456 kts | 323° |
| 2026-05-05 15:13 | 43.04401 | 49.08725 | 33909 ft | 466 kts | 324° |
| 2026-05-05 15:13 | 43.10278 | 49.04501 | 33914 ft | 476 kts | 324° |
| 2026-05-05 15:14 | 43.16068 | 49.00339 | 33919 ft | 482 kts | 324° |
| 2026-05-05 15:14 | 43.22003 | 48.96076 | 33926 ft | 479 kts | 324° |
| 2026-05-05 15:15 | 43.27885 | 48.91838 | 33914 ft | 479 kts | 324° |
| 2026-05-05 15:15 | 43.33754 | 48.87596 | 33927 ft | 479 kts | 324° |
| 2026-05-05 15:16 | 43.39600 | 48.83363 | 33911 ft | 479 kts | 324° |
| 2026-05-05 15:16 | 43.45461 | 48.79106 | 33914 ft | 480 kts | 325° |
| 2026-05-05 15:17 | 43.51334 | 48.74832 | 33912 ft | 480 kts | 325° |
| 2026-05-05 15:17 | 43.57233 | 48.70531 | 33908 ft | 478 kts | 325° |
| 2026-05-05 15:18 | 43.63065 | 48.66262 | 33921 ft | 481 kts | 325° |
| 2026-05-05 15:18 | 43.68945 | 48.61957 | 33916 ft | 480 kts | 325° |
| 2026-05-05 15:19 | 43.74845 | 48.57617 | 33909 ft | 485 kts | 325° |
| 2026-05-05 15:19 | 43.80752 | 48.53268 | 33914 ft | 486 kts | 325° |
| 2026-05-05 15:20 | 43.86613 | 48.48948 | 33923 ft | 484 kts | 325° |
| 2026-05-05 15:20 | 43.92526 | 48.44579 | 33925 ft | 485 kts | 326° |
| 2026-05-05 15:21 | 43.98469 | 48.40176 | 33918 ft | 483 kts | 326° |
| 2026-05-05 15:21 | 44.04371 | 48.35790 | 33919 ft | 485 kts | 326° |
| 2026-05-05 15:22 | 44.10243 | 48.31420 | 33919 ft | 483 kts | 325° |
| 2026-05-05 15:22 | 44.16051 | 48.27090 | 33912 ft | 482 kts | 325° |
| 2026-05-05 15:23 | 44.21900 | 48.22714 | 33910 ft | 484 kts | 326° |
| 2026-05-05 15:23 | 44.27831 | 48.18272 | 33913 ft | 480 kts | 326° |
| 2026-05-05 15:24 | 44.33611 | 48.13929 | 33917 ft | 480 kts | 326° |
| 2026-05-05 15:24 | 44.39491 | 48.09694 | 33913 ft | 482 kts | 329° |
| 2026-05-05 15:25 | 44.45649 | 48.05714 | 33912 ft | 482 kts | 330° |
| 2026-05-05 15:25 | 44.51727 | 48.01801 | 33911 ft | 482 kts | 330° |
| 2026-05-05 15:26 | 44.57779 | 47.97857 | 33917 ft | 482 kts | 330° |
| 2026-05-05 15:26 | 44.63766 | 47.93912 | 33911 ft | 482 kts | 330° |
| 2026-05-05 15:27 | 44.69814 | 47.89910 | 33916 ft | 481 kts | 330° |
| 2026-05-05 15:27 | 44.75667 | 47.86025 | 33912 ft | 479 kts | 330° |
| 2026-05-05 15:28 | 44.81781 | 47.81953 | 33916 ft | 478 kts | 331° |
| 2026-05-05 15:28 | 44.87723 | 47.77986 | 33909 ft | 478 kts | 331° |
| 2026-05-05 15:29 | 44.93691 | 47.73995 | 33910 ft | 476 kts | 331° |
| 2026-05-05 15:29 | 44.99520 | 47.70086 | 33914 ft | 476 kts | 331° |
| 2026-05-05 15:30 | 45.05534 | 47.66043 | 33911 ft | 476 kts | 331° |
| 2026-05-05 15:30 | 45.11481 | 47.62035 | 33911 ft | 477 kts | 332° |
| 2026-05-05 15:31 | 45.17457 | 47.57999 | 33908 ft | 478 kts | 332° |
| 2026-05-05 15:31 | 45.23298 | 47.54048 | 33911 ft | 477 kts | 332° |
| 2026-05-05 15:32 | 45.29389 | 47.49916 | 33912 ft | 478 kts | 332° |
| 2026-05-05 15:32 | 45.35377 | 47.45844 | 33908 ft | 477 kts | 332° |
| 2026-05-05 15:33 | 45.41259 | 47.41835 | 33902 ft | 477 kts | 332° |
| 2026-05-05 15:33 | 45.47179 | 47.37791 | 33908 ft | 476 kts | 333° |
| 2026-05-05 15:34 | 45.53182 | 47.33680 | 33909 ft | 477 kts | 332° |
| 2026-05-05 15:34 | 45.59176 | 47.29564 | 33905 ft | 477 kts | 332° |
| 2026-05-05 15:35 | 45.65091 | 47.25494 | 33904 ft | 477 kts | 332° |
| 2026-05-05 15:35 | 45.70906 | 47.21446 | 33904 ft | 477 kts | 332° |
| 2026-05-05 15:36 | 45.76911 | 47.17218 | 33911 ft | 476 kts | 332° |
| 2026-05-05 15:36 | 45.82814 | 47.13054 | 33904 ft | 476 kts | 332° |
| 2026-05-05 15:37 | 45.88775 | 47.08841 | 33913 ft | 480 kts | 333° |
| 2026-05-05 15:37 | 45.94727 | 47.04588 | 33907 ft | 480 kts | 332° |
| 2026-05-05 15:38 | 46.00562 | 47.00097 | 33912 ft | 479 kts | 330° |
| 2026-05-05 15:38 | 46.06348 | 46.95563 | 33913 ft | 481 kts | 330° |
| 2026-05-05 15:39 | 46.12222 | 46.90968 | 33916 ft | 482 kts | 330° |
| 2026-05-05 15:39 | 46.18064 | 46.86405 | 33926 ft | 481 kts | 331° |
| 2026-05-05 15:40 | 46.23951 | 46.82023 | 33923 ft | 484 kts | 334° |
| 2026-05-05 15:40 | 46.30051 | 46.77946 | 33916 ft | 486 kts | 335° |
| 2026-05-05 15:41 | 46.36132 | 46.73899 | 33914 ft | 485 kts | 335° |
| 2026-05-05 15:41 | 46.42243 | 46.69788 | 33915 ft | 486 kts | 335° |
| 2026-05-05 15:42 | 46.48277 | 46.65699 | 33922 ft | 486 kts | 336° |
| 2026-05-05 15:42 | 46.54408 | 46.61523 | 33919 ft | 485 kts | 335° |
| 2026-05-05 15:43 | 46.60462 | 46.57384 | 33926 ft | 485 kts | 336° |
| 2026-05-05 15:43 | 46.66502 | 46.53242 | 33928 ft | 484 kts | 336° |
| 2026-05-05 15:44 | 46.72564 | 46.49075 | 33927 ft | 483 kts | 336° |
| 2026-05-05 15:44 | 46.78572 | 46.44933 | 33938 ft | 482 kts | 336° |
| 2026-05-05 15:45 | 46.84568 | 46.40791 | 33945 ft | 481 kts | 337° |
| 2026-05-05 15:45 | 46.90542 | 46.36653 | 33931 ft | 479 kts | 337° |